sensor_id;sensor_type;location;lat;lon;timestamp;P1;durP1;ratioP1;P2;durP2;ratioP2
47481;SDS011;33219;47.410;9.730;2023-04-25T00:01:46;10.00;;;7.28;;
47481;SDS011;33219;47.410;9.730;2023-04-25T00:04:14;9.43;;;6.97;;
47481;SDS011;33219;47.410;9.730;2023-04-25T00:06:41;11.15;;;7.22;;
47481;SDS011;33219;47.410;9.730;2023-04-25T00:09:09;11.20;;;7.20;;
47481;SDS011;33219;47.410;9.730;2023-04-25T00:11:37;10.98;;;7.58;;
47481;SDS011;33219;47.410;9.730;2023-04-25T00:14:05;12.68;;;6.78;;
47481;SDS011;33219;47.410;9.730;2023-04-25T00:16:32;9.35;;;6.78;;
47481;SDS011;33219;47.410;9.730;2023-04-25T00:19:01;9.58;;;7.30;;
47481;SDS011;33219;47.410;9.730;2023-04-25T00:21:29;12.90;;;7.28;;
47481;SDS011;33219;47.410;9.730;2023-04-25T00:23:57;10.05;;;7.85;;
47481;SDS011;33219;47.410;9.730;2023-04-25T00:26:25;11.10;;;7.78;;
47481;SDS011;33219;47.410;9.730;2023-04-25T00:28:53;13.10;;;8.68;;
47481;SDS011;33219;47.410;9.730;2023-04-25T00:31:21;10.75;;;7.75;;
47481;SDS011;33219;47.410;9.730;2023-04-25T00:33:48;10.70;;;8.25;;
47481;SDS011;33219;47.410;9.730;2023-04-25T00:36:16;12.28;;;8.88;;
47481;SDS011;33219;47.410;9.730;2023-04-25T00:38:44;11.78;;;8.60;;
47481;SDS011;33219;47.410;9.730;2023-04-25T00:41:11;14.93;;;9.50;;
47481;SDS011;33219;47.410;9.730;2023-04-25T00:43:39;12.37;;;9.15;;
47481;SDS011;33219;47.410;9.730;2023-04-25T00:46:07;14.58;;;10.23;;
47481;SDS011;33219;47.410;9.730;2023-04-25T00:48:35;14.47;;;9.80;;
47481;SDS011;33219;47.410;9.730;2023-04-25T00:51:03;12.68;;;8.43;;
47481;SDS011;33219;47.410;9.730;2023-04-25T00:53:30;12.65;;;8.15;;
47481;SDS011;33219;47.410;9.730;2023-04-25T00:55:58;16.05;;;9.13;;
47481;SDS011;33219;47.410;9.730;2023-04-25T00:58:26;13.93;;;9.20;;
47481;SDS011;33219;47.410;9.730;2023-04-25T01:00:54;13.48;;;8.60;;
47481;SDS011;33219;47.410;9.730;2023-04-25T01:03:24;13.32;;;9.43;;
47481;SDS011;33219;47.410;9.730;2023-04-25T01:05:53;14.00;;;9.98;;
47481;SDS011;33219;47.410;9.730;2023-04-25T01:08:21;13.35;;;9.48;;
47481;SDS011;33219;47.410;9.730;2023-04-25T01:10:52;11.12;;;8.23;;
47481;SDS011;33219;47.410;9.730;2023-04-25T01:13:19;11.88;;;7.83;;
47481;SDS011;33219;47.410;9.730;2023-04-25T01:15:47;9.73;;;6.85;;
47481;SDS011;33219;47.410;9.730;2023-04-25T01:18:15;11.10;;;6.60;;
47481;SDS011;33219;47.410;9.730;2023-04-25T01:20:43;7.42;;;5.60;;
47481;SDS011;33219;47.410;9.730;2023-04-25T01:23:11;9.03;;;5.30;;
47481;SDS011;33219;47.410;9.730;2023-04-25T01:25:40;4.60;;;3.83;;
47481;SDS011;33219;47.410;9.730;2023-04-25T01:28:08;5.25;;;3.92;;
47481;SDS011;33219;47.410;9.730;2023-04-25T01:30:36;4.03;;;3.33;;
47481;SDS011;33219;47.410;9.730;2023-04-25T01:33:04;5.42;;;3.75;;
47481;SDS011;33219;47.410;9.730;2023-04-25T01:35:34;6.17;;;3.67;;
47481;SDS011;33219;47.410;9.730;2023-04-25T01:38:01;7.42;;;3.52;;
47481;SDS011;33219;47.410;9.730;2023-04-25T01:40:29;6.80;;;3.45;;
47481;SDS011;33219;47.410;9.730;2023-04-25T01:42:58;5.80;;;3.60;;
47481;SDS011;33219;47.410;9.730;2023-04-25T01:45:26;6.55;;;3.40;;
47481;SDS011;33219;47.410;9.730;2023-04-25T01:47:53;5.72;;;3.40;;
47481;SDS011;33219;47.410;9.730;2023-04-25T01:50:22;5.30;;;2.90;;
47481;SDS011;33219;47.410;9.730;2023-04-25T01:52:50;5.47;;;3.40;;
47481;SDS011;33219;47.410;9.730;2023-04-25T01:55:18;5.75;;;3.08;;
47481;SDS011;33219;47.410;9.730;2023-04-25T01:57:45;7.75;;;3.17;;
47481;SDS011;33219;47.410;9.730;2023-04-25T02:00:13;6.37;;;3.62;;
47481;SDS011;33219;47.410;9.730;2023-04-25T02:02:41;6.40;;;4.47;;
47481;SDS011;33219;47.410;9.730;2023-04-25T02:05:08;8.30;;;5.87;;
47481;SDS011;33219;47.410;9.730;2023-04-25T02:07:36;9.18;;;7.08;;
47481;SDS011;33219;47.410;9.730;2023-04-25T02:10:05;10.70;;;6.85;;
47481;SDS011;33219;47.410;9.730;2023-04-25T02:12:33;9.73;;;7.67;;
47481;SDS011;33219;47.410;9.730;2023-04-25T02:15:01;9.70;;;7.65;;
47481;SDS011;33219;47.410;9.730;2023-04-25T02:17:29;10.05;;;7.62;;
47481;SDS011;33219;47.410;9.730;2023-04-25T02:19:57;10.90;;;7.50;;
47481;SDS011;33219;47.410;9.730;2023-04-25T02:22:25;11.00;;;7.40;;
47481;SDS011;33219;47.410;9.730;2023-04-25T02:24:53;11.20;;;7.67;;
47481;SDS011;33219;47.410;9.730;2023-04-25T02:27:21;12.82;;;8.40;;
47481;SDS011;33219;47.410;9.730;2023-04-25T02:29:49;10.82;;;8.53;;
47481;SDS011;33219;47.410;9.730;2023-04-25T02:32:16;14.63;;;8.35;;
47481;SDS011;33219;47.410;9.730;2023-04-25T02:34:44;10.48;;;7.17;;
47481;SDS011;33219;47.410;9.730;2023-04-25T02:37:11;9.18;;;7.00;;
47481;SDS011;33219;47.410;9.730;2023-04-25T02:39:39;9.28;;;6.72;;
47481;SDS011;33219;47.410;9.730;2023-04-25T02:42:07;7.62;;;5.15;;
47481;SDS011;33219;47.410;9.730;2023-04-25T02:44:34;8.00;;;4.30;;
47481;SDS011;33219;47.410;9.730;2023-04-25T02:47:02;6.05;;;4.00;;
47481;SDS011;33219;47.410;9.730;2023-04-25T02:49:29;7.17;;;4.30;;
47481;SDS011;33219;47.410;9.730;2023-04-25T02:51:57;9.45;;;4.22;;
47481;SDS011;33219;47.410;9.730;2023-04-25T02:54:25;7.62;;;3.90;;
47481;SDS011;33219;47.410;9.730;2023-04-25T02:56:53;7.70;;;4.08;;
47481;SDS011;33219;47.410;9.730;2023-04-25T02:59:20;6.47;;;4.70;;
47481;SDS011;33219;47.410;9.730;2023-04-25T03:01:48;9.58;;;5.80;;
47481;SDS011;33219;47.410;9.730;2023-04-25T03:04:15;9.73;;;5.75;;
47481;SDS011;33219;47.410;9.730;2023-04-25T03:06:44;7.83;;;4.97;;
47481;SDS011;33219;47.410;9.730;2023-04-25T03:09:12;8.78;;;5.15;;
47481;SDS011;33219;47.410;9.730;2023-04-25T03:11:40;8.40;;;5.10;;
47481;SDS011;33219;47.410;9.730;2023-04-25T03:14:07;7.35;;;5.10;;
47481;SDS011;33219;47.410;9.730;2023-04-25T03:16:35;6.30;;;4.22;;
47481;SDS011;33219;47.410;9.730;2023-04-25T03:19:03;8.68;;;5.25;;
47481;SDS011;33219;47.410;9.730;2023-04-25T03:21:32;7.58;;;4.78;;
47481;SDS011;33219;47.410;9.730;2023-04-25T03:24:01;8.05;;;5.90;;
47481;SDS011;33219;47.410;9.730;2023-04-25T03:26:30;7.72;;;5.42;;
47481;SDS011;33219;47.410;9.730;2023-04-25T03:28:58;6.90;;;4.50;;
47481;SDS011;33219;47.410;9.730;2023-04-25T03:31:26;6.67;;;4.08;;
47481;SDS011;33219;47.410;9.730;2023-04-25T03:33:53;5.30;;;3.67;;
47481;SDS011;33219;47.410;9.730;2023-04-25T03:36:21;6.25;;;3.85;;
47481;SDS011;33219;47.410;9.730;2023-04-25T03:38:48;5.75;;;3.85;;
47481;SDS011;33219;47.410;9.730;2023-04-25T03:41:16;5.85;;;3.62;;
47481;SDS011;33219;47.410;9.730;2023-04-25T03:43:44;5.85;;;3.80;;
47481;SDS011;33219;47.410;9.730;2023-04-25T03:46:11;6.33;;;3.45;;
47481;SDS011;33219;47.410;9.730;2023-04-25T03:48:39;5.92;;;3.42;;
47481;SDS011;33219;47.410;9.730;2023-04-25T03:51:06;6.05;;;3.22;;
47481;SDS011;33219;47.410;9.730;2023-04-25T03:53:34;5.15;;;3.27;;
47481;SDS011;33219;47.410;9.730;2023-04-25T03:56:02;5.58;;;3.30;;
47481;SDS011;33219;47.410;9.730;2023-04-25T03:58:29;5.30;;;3.20;;
47481;SDS011;33219;47.410;9.730;2023-04-25T04:00:57;4.87;;;2.90;;
47481;SDS011;33219;47.410;9.730;2023-04-25T04:03:24;5.78;;;3.10;;
47481;SDS011;33219;47.410;9.730;2023-04-25T04:05:52;5.03;;;3.08;;
47481;SDS011;33219;47.410;9.730;2023-04-25T04:08:19;4.25;;;2.75;;
47481;SDS011;33219;47.410;9.730;2023-04-25T04:10:47;8.63;;;3.35;;
47481;SDS011;33219;47.410;9.730;2023-04-25T04:13:15;4.42;;;2.62;;
47481;SDS011;33219;47.410;9.730;2023-04-25T04:15:42;6.85;;;2.95;;
47481;SDS011;33219;47.410;9.730;2023-04-25T04:18:10;5.50;;;3.08;;
47481;SDS011;33219;47.410;9.730;2023-04-25T04:20:37;7.25;;;3.47;;
47481;SDS011;33219;47.410;9.730;2023-04-25T04:23:05;6.03;;;3.40;;
47481;SDS011;33219;47.410;9.730;2023-04-25T04:25:32;5.97;;;3.37;;
47481;SDS011;33219;47.410;9.730;2023-04-25T04:28:01;5.33;;;3.30;;
47481;SDS011;33219;47.410;9.730;2023-04-25T04:30:28;5.60;;;3.08;;
47481;SDS011;33219;47.410;9.730;2023-04-25T04:32:56;6.40;;;3.40;;
47481;SDS011;33219;47.410;9.730;2023-04-25T04:35:24;4.45;;;2.92;;
47481;SDS011;33219;47.410;9.730;2023-04-25T04:37:51;7.53;;;3.33;;
47481;SDS011;33219;47.410;9.730;2023-04-25T04:40:20;8.85;;;3.47;;
47481;SDS011;33219;47.410;9.730;2023-04-25T04:42:48;4.53;;;2.58;;
47481;SDS011;33219;47.410;9.730;2023-04-25T04:45:15;4.10;;;2.72;;
47481;SDS011;33219;47.410;9.730;2023-04-25T04:47:44;4.00;;;3.00;;
47481;SDS011;33219;47.410;9.730;2023-04-25T04:50:11;7.97;;;3.25;;
47481;SDS011;33219;47.410;9.730;2023-04-25T04:52:40;6.28;;;2.75;;
47481;SDS011;33219;47.410;9.730;2023-04-25T04:55:08;9.08;;;3.52;;
47481;SDS011;33219;47.410;9.730;2023-04-25T04:57:36;6.67;;;3.08;;
47481;SDS011;33219;47.410;9.730;2023-04-25T05:00:04;5.75;;;2.67;;
47481;SDS011;33219;47.410;9.730;2023-04-25T05:02:34;6.37;;;2.87;;
47481;SDS011;33219;47.410;9.730;2023-04-25T05:05:01;5.40;;;2.37;;
47481;SDS011;33219;47.410;9.730;2023-04-25T05:07:29;6.35;;;3.22;;
47481;SDS011;33219;47.410;9.730;2023-04-25T05:09:57;11.78;;;3.52;;
47481;SDS011;33219;47.410;9.730;2023-04-25T05:12:24;6.37;;;3.00;;
47481;SDS011;33219;47.410;9.730;2023-04-25T05:14:52;6.03;;;2.60;;
47481;SDS011;33219;47.410;9.730;2023-04-25T05:17:19;6.72;;;2.98;;
47481;SDS011;33219;47.410;9.730;2023-04-25T05:19:47;4.72;;;2.95;;
47481;SDS011;33219;47.410;9.730;2023-04-25T05:22:15;5.08;;;2.70;;
47481;SDS011;33219;47.410;9.730;2023-04-25T05:24:42;5.60;;;2.75;;
47481;SDS011;33219;47.410;9.730;2023-04-25T05:27:10;8.78;;;3.00;;
47481;SDS011;33219;47.410;9.730;2023-04-25T05:29:38;4.85;;;3.02;;
47481;SDS011;33219;47.410;9.730;2023-04-25T05:32:05;4.85;;;3.02;;
47481;SDS011;33219;47.410;9.730;2023-04-25T05:34:37;6.03;;;3.40;;
47481;SDS011;33219;47.410;9.730;2023-04-25T05:37:06;5.90;;;2.85;;
47481;SDS011;33219;47.410;9.730;2023-04-25T05:39:38;4.83;;;3.02;;
47481;SDS011;33219;47.410;9.730;2023-04-25T05:42:15;4.80;;;3.20;;
47481;SDS011;33219;47.410;9.730;2023-04-25T05:44:51;8.05;;;3.27;;
47481;SDS011;33219;47.410;9.730;2023-04-25T05:47:29;6.25;;;2.85;;
47481;SDS011;33219;47.410;9.730;2023-04-25T05:50:34;5.70;;;2.72;;
47481;SDS011;33219;47.410;9.730;2023-04-25T05:53:14;7.67;;;2.60;;
47481;SDS011;33219;47.410;9.730;2023-04-25T05:55:53;5.20;;;2.40;;
47481;SDS011;33219;47.410;9.730;2023-04-25T05:58:28;5.58;;;2.50;;
47481;SDS011;33219;47.410;9.730;2023-04-25T06:01:05;6.85;;;2.77;;
47481;SDS011;33219;47.410;9.730;2023-04-25T06:03:38;5.35;;;2.90;;
47481;SDS011;33219;47.410;9.730;2023-04-25T06:06:14;4.47;;;2.60;;
47481;SDS011;33219;47.410;9.730;2023-04-25T06:08:51;5.33;;;2.70;;
47481;SDS011;33219;47.410;9.730;2023-04-25T06:14:00;5.10;;;2.70;;
47481;SDS011;33219;47.410;9.730;2023-04-25T06:16:43;5.05;;;2.22;;
47481;SDS011;33219;47.410;9.730;2023-04-25T06:19:11;4.25;;;2.20;;
47481;SDS011;33219;47.410;9.730;2023-04-25T06:21:45;5.17;;;2.20;;
47481;SDS011;33219;47.410;9.730;2023-04-25T06:24:20;3.98;;;2.45;;
47481;SDS011;33219;47.410;9.730;2023-04-25T06:26:54;8.18;;;3.00;;
47481;SDS011;33219;47.410;9.730;2023-04-25T06:29:29;5.22;;;2.92;;
47481;SDS011;33219;47.410;9.730;2023-04-25T06:32:06;5.83;;;2.40;;
47481;SDS011;33219;47.410;9.730;2023-04-25T06:34:41;5.42;;;2.45;;
47481;SDS011;33219;47.410;9.730;2023-04-25T06:39:51;5.05;;;2.87;;
47481;SDS011;33219;47.410;9.730;2023-04-25T06:42:26;5.25;;;3.10;;
47481;SDS011;33219;47.410;9.730;2023-04-25T06:45:06;4.47;;;2.95;;
47481;SDS011;33219;47.410;9.730;2023-04-25T06:47:41;4.83;;;2.87;;
47481;SDS011;33219;47.410;9.730;2023-04-25T06:50:24;5.25;;;2.90;;
47481;SDS011;33219;47.410;9.730;2023-04-25T06:53:00;5.60;;;3.02;;
47481;SDS011;33219;47.410;9.730;2023-04-25T06:55:39;5.15;;;2.85;;
47481;SDS011;33219;47.410;9.730;2023-04-25T06:58:13;3.58;;;2.50;;
47481;SDS011;33219;47.410;9.730;2023-04-25T07:00:47;4.12;;;2.40;;
47481;SDS011;33219;47.410;9.730;2023-04-25T07:03:23;3.90;;;2.77;;
47481;SDS011;33219;47.410;9.730;2023-04-25T07:06:04;5.53;;;2.70;;
47481;SDS011;33219;47.410;9.730;2023-04-25T07:08:37;4.72;;;2.30;;
47481;SDS011;33219;47.410;9.730;2023-04-25T07:11:10;3.85;;;2.10;;
47481;SDS011;33219;47.410;9.730;2023-04-25T07:13:40;5.22;;;2.55;;
47481;SDS011;33219;47.410;9.730;2023-04-25T07:16:12;5.80;;;2.20;;
47481;SDS011;33219;47.410;9.730;2023-04-25T07:18:46;5.25;;;2.40;;
47481;SDS011;33219;47.410;9.730;2023-04-25T07:21:20;3.80;;;2.42;;
47481;SDS011;33219;47.410;9.730;2023-04-25T07:26:43;3.98;;;2.60;;
47481;SDS011;33219;47.410;9.730;2023-04-25T07:29:21;3.90;;;2.08;;
47481;SDS011;33219;47.410;9.730;2023-04-25T07:31:56;6.33;;;2.40;;
47481;SDS011;33219;47.410;9.730;2023-04-25T07:34:32;5.90;;;2.33;;
47481;SDS011;33219;47.410;9.730;2023-04-25T07:37:04;6.00;;;2.47;;
47481;SDS011;33219;47.410;9.730;2023-04-25T07:39:35;4.10;;;2.30;;
47481;SDS011;33219;47.410;9.730;2023-04-25T07:42:03;4.25;;;2.10;;
47481;SDS011;33219;47.410;9.730;2023-04-25T07:44:33;6.37;;;2.60;;
47481;SDS011;33219;47.410;9.730;2023-04-25T07:47:04;4.35;;;2.00;;
47481;SDS011;33219;47.410;9.730;2023-04-25T07:49:36;3.27;;;2.17;;
47481;SDS011;33219;47.410;9.730;2023-04-25T07:52:05;5.47;;;2.02;;
47481;SDS011;33219;47.410;9.730;2023-04-25T07:54:34;3.25;;;1.90;;
47481;SDS011;33219;47.410;9.730;2023-04-25T07:57:03;3.77;;;1.77;;
47481;SDS011;33219;47.410;9.730;2023-04-25T07:59:32;6.10;;;2.27;;
47481;SDS011;33219;47.410;9.730;2023-04-25T08:02:01;4.65;;;2.00;;
47481;SDS011;33219;47.410;9.730;2023-04-25T08:04:32;3.92;;;2.20;;
47481;SDS011;33219;47.410;9.730;2023-04-25T08:07:00;4.58;;;2.27;;
47481;SDS011;33219;47.410;9.730;2023-04-25T08:09:29;5.62;;;2.30;;
47481;SDS011;33219;47.410;9.730;2023-04-25T08:11:58;4.62;;;2.55;;
47481;SDS011;33219;47.410;9.730;2023-04-25T08:14:27;5.25;;;2.15;;
47481;SDS011;33219;47.410;9.730;2023-04-25T08:17:06;3.45;;;2.00;;
47481;SDS011;33219;47.410;9.730;2023-04-25T08:22:22;7.47;;;3.02;;
47481;SDS011;33219;47.410;9.730;2023-04-25T08:24:55;6.20;;;2.20;;
47481;SDS011;33219;47.410;9.730;2023-04-25T08:27:25;4.35;;;2.45;;
47481;SDS011;33219;47.410;9.730;2023-04-25T08:30:01;5.78;;;2.40;;
47481;SDS011;33219;47.410;9.730;2023-04-25T08:32:30;4.47;;;2.37;;
47481;SDS011;33219;47.410;9.730;2023-04-25T08:35:00;6.33;;;2.72;;
47481;SDS011;33219;47.410;9.730;2023-04-25T08:37:30;4.40;;;3.05;;
47481;SDS011;33219;47.410;9.730;2023-04-25T08:40:03;6.55;;;2.85;;
47481;SDS011;33219;47.410;9.730;2023-04-25T08:42:33;6.12;;;3.20;;
47481;SDS011;33219;47.410;9.730;2023-04-25T08:45:04;5.80;;;3.80;;
47481;SDS011;33219;47.410;9.730;2023-04-25T08:47:39;5.33;;;3.12;;
47481;SDS011;33219;47.410;9.730;2023-04-25T08:50:13;6.95;;;3.80;;
47481;SDS011;33219;47.410;9.730;2023-04-25T08:52:45;5.90;;;3.30;;
47481;SDS011;33219;47.410;9.730;2023-04-25T08:55:20;7.10;;;3.10;;
47481;SDS011;33219;47.410;9.730;2023-04-25T08:57:56;5.90;;;2.92;;
47481;SDS011;33219;47.410;9.730;2023-04-25T09:00:28;6.65;;;3.27;;
47481;SDS011;33219;47.410;9.730;2023-04-25T09:03:02;5.95;;;3.75;;
47481;SDS011;33219;47.410;9.730;2023-04-25T09:05:39;5.97;;;3.42;;
47481;SDS011;33219;47.410;9.730;2023-04-25T09:08:14;6.33;;;2.90;;
47481;SDS011;33219;47.410;9.730;2023-04-25T09:10:48;6.33;;;2.72;;
47481;SDS011;33219;47.410;9.730;2023-04-25T09:13:28;5.65;;;3.50;;
47481;SDS011;33219;47.410;9.730;2023-04-25T09:16:03;6.40;;;3.77;;
47481;SDS011;33219;47.410;9.730;2023-04-25T09:18:37;8.33;;;3.95;;
47481;SDS011;33219;47.410;9.730;2023-04-25T09:21:13;7.33;;;4.80;;
47481;SDS011;33219;47.410;9.730;2023-04-25T09:23:47;6.37;;;3.85;;
47481;SDS011;33219;47.410;9.730;2023-04-25T09:26:20;6.75;;;4.28;;
47481;SDS011;33219;47.410;9.730;2023-04-25T09:28:53;8.88;;;4.85;;
47481;SDS011;33219;47.410;9.730;2023-04-25T09:31:23;7.70;;;4.57;;
47481;SDS011;33219;47.410;9.730;2023-04-25T09:33:58;6.45;;;3.77;;
47481;SDS011;33219;47.410;9.730;2023-04-25T09:36:29;8.95;;;4.70;;
47481;SDS011;33219;47.410;9.730;2023-04-25T09:39:01;6.05;;;3.05;;
47481;SDS011;33219;47.410;9.730;2023-04-25T09:41:43;8.30;;;4.10;;
47481;SDS011;33219;47.410;9.730;2023-04-25T09:44:06;8.50;;;4.95;;
47481;SDS011;33219;47.410;9.730;2023-04-25T09:46:36;8.53;;;4.62;;
47481;SDS011;33219;47.410;9.730;2023-04-25T09:49:10;7.58;;;3.67;;
47481;SDS011;33219;47.410;9.730;2023-04-25T09:54:16;5.45;;;3.15;;
47481;SDS011;33219;47.410;9.730;2023-04-25T09:56:48;4.90;;;2.83;;
47481;SDS011;33219;47.410;9.730;2023-04-25T09:59:18;6.87;;;3.70;;
47481;SDS011;33219;47.410;9.730;2023-04-25T10:01:50;6.87;;;4.47;;
47481;SDS011;33219;47.410;9.730;2023-04-25T10:04:22;5.33;;;2.10;;
47481;SDS011;33219;47.410;9.730;2023-04-25T10:06:54;4.05;;;2.45;;
47481;SDS011;33219;47.410;9.730;2023-04-25T10:09:28;4.58;;;2.80;;
47481;SDS011;33219;47.410;9.730;2023-04-25T10:12:06;5.67;;;3.75;;
47481;SDS011;33219;47.410;9.730;2023-04-25T10:14:40;3.35;;;2.30;;
47481;SDS011;33219;47.410;9.730;2023-04-25T10:17:16;5.03;;;3.20;;
47481;SDS011;33219;47.410;9.730;2023-04-25T10:19:52;3.30;;;2.00;;
47481;SDS011;33219;47.410;9.730;2023-04-25T10:22:31;3.33;;;1.98;;
47481;SDS011;33219;47.410;9.730;2023-04-25T10:25:02;4.10;;;2.77;;
47481;SDS011;33219;47.410;9.730;2023-04-25T10:27:38;8.03;;;4.58;;
47481;SDS011;33219;47.410;9.730;2023-04-25T10:30:14;5.47;;;3.20;;
47481;SDS011;33219;47.410;9.730;2023-04-25T10:32:47;3.90;;;2.20;;
47481;SDS011;33219;47.410;9.730;2023-04-25T10:35:25;3.25;;;2.00;;
47481;SDS011;33219;47.410;9.730;2023-04-25T10:38:09;3.10;;;1.67;;
47481;SDS011;33219;47.410;9.730;2023-04-25T10:40:32;1.90;;;1.30;;
47481;SDS011;33219;47.410;9.730;2023-04-25T10:45:52;3.58;;;1.60;;
47481;SDS011;33219;47.410;9.730;2023-04-25T10:48:31;2.62;;;1.62;;
47481;SDS011;33219;47.410;9.730;2023-04-25T10:51:10;2.72;;;1.50;;
47481;SDS011;33219;47.410;9.730;2023-04-25T10:53:40;7.87;;;3.60;;
47481;SDS011;33219;47.410;9.730;2023-04-25T10:56:19;3.90;;;1.87;;
47481;SDS011;33219;47.410;9.730;2023-04-25T10:58:48;2.05;;;1.55;;
47481;SDS011;33219;47.410;9.730;2023-04-25T11:01:19;2.87;;;1.50;;
47481;SDS011;33219;47.410;9.730;2023-04-25T11:03:46;4.22;;;2.22;;
47481;SDS011;33219;47.410;9.730;2023-04-25T11:06:35;5.40;;;2.02;;
47481;SDS011;33219;47.410;9.730;2023-04-25T11:09:12;3.52;;;2.30;;
47481;SDS011;33219;47.410;9.730;2023-04-25T11:11:52;4.60;;;2.30;;
47481;SDS011;33219;47.410;9.730;2023-04-25T11:14:19;4.25;;;2.45;;
47481;SDS011;33219;47.410;9.730;2023-04-25T11:16:52;7.25;;;2.58;;
47481;SDS011;33219;47.410;9.730;2023-04-25T11:19:23;3.85;;;2.50;;
47481;SDS011;33219;47.410;9.730;2023-04-25T11:21:59;3.87;;;2.20;;
47481;SDS011;33219;47.410;9.730;2023-04-25T11:24:34;3.02;;;2.00;;
47481;SDS011;33219;47.410;9.730;2023-04-25T11:27:04;3.40;;;2.17;;
47481;SDS011;33219;47.410;9.730;2023-04-25T11:29:46;4.60;;;2.30;;
47481;SDS011;33219;47.410;9.730;2023-04-25T11:35:11;4.75;;;2.40;;
47481;SDS011;33219;47.410;9.730;2023-04-25T11:37:43;4.85;;;2.35;;
47481;SDS011;33219;47.410;9.730;2023-04-25T11:40:21;4.12;;;2.50;;
47481;SDS011;33219;47.410;9.730;2023-04-25T11:42:59;3.80;;;2.08;;
47481;SDS011;33219;47.410;9.730;2023-04-25T11:45:42;2.62;;;1.90;;
47481;SDS011;33219;47.410;9.730;2023-04-25T11:48:16;4.33;;;1.90;;
47481;SDS011;33219;47.410;9.730;2023-04-25T11:50:46;4.40;;;2.10;;
47481;SDS011;33219;47.410;9.730;2023-04-25T11:53:25;4.80;;;2.45;;
47481;SDS011;33219;47.410;9.730;2023-04-25T11:55:51;6.15;;;2.60;;
47481;SDS011;33219;47.410;9.730;2023-04-25T11:58:20;2.80;;;1.70;;
47481;SDS011;33219;47.410;9.730;2023-04-25T12:00:49;2.95;;;1.60;;
47481;SDS011;33219;47.410;9.730;2023-04-25T12:03:19;3.12;;;1.30;;
47481;SDS011;33219;47.410;9.730;2023-04-25T12:05:51;2.52;;;1.45;;
47481;SDS011;33219;47.410;9.730;2023-04-25T12:08:26;2.77;;;1.60;;
47481;SDS011;33219;47.410;9.730;2023-04-25T12:10:56;3.80;;;2.00;;
47481;SDS011;33219;47.410;9.730;2023-04-25T12:13:28;4.15;;;1.98;;
47481;SDS011;33219;47.410;9.730;2023-04-25T12:16:01;2.70;;;1.90;;
47481;SDS011;33219;47.410;9.730;2023-04-25T12:18:35;3.50;;;2.10;;
47481;SDS011;33219;47.410;9.730;2023-04-25T12:21:10;3.42;;;2.12;;
47481;SDS011;33219;47.410;9.730;2023-04-25T12:23:44;4.15;;;2.72;;
47481;SDS011;33219;47.410;9.730;2023-04-25T12:26:20;3.25;;;1.90;;
47481;SDS011;33219;47.410;9.730;2023-04-25T12:28:54;3.02;;;1.80;;
47481;SDS011;33219;47.410;9.730;2023-04-25T12:31:23;1.92;;;1.30;;
47481;SDS011;33219;47.410;9.730;2023-04-25T12:33:56;1.62;;;1.00;;
47481;SDS011;33219;47.410;9.730;2023-04-25T12:36:24;1.67;;;1.17;;
47481;SDS011;33219;47.410;9.730;2023-04-25T12:38:54;1.75;;;1.00;;
47481;SDS011;33219;47.410;9.730;2023-04-25T12:41:25;1.20;;;0.88;;
47481;SDS011;33219;47.410;9.730;2023-04-25T12:43:59;1.20;;;0.75;;
47481;SDS011;33219;47.410;9.730;2023-04-25T12:46:30;2.40;;;0.85;;
47481;SDS011;33219;47.410;9.730;2023-04-25T12:49:00;1.10;;;0.80;;
47481;SDS011;33219;47.410;9.730;2023-04-25T12:51:31;1.47;;;0.65;;
47481;SDS011;33219;47.410;9.730;2023-04-25T12:54:06;1.37;;;0.78;;
47481;SDS011;33219;47.410;9.730;2023-04-25T12:56:36;0.70;;;0.60;;
47481;SDS011;33219;47.410;9.730;2023-04-25T12:59:05;1.45;;;0.95;;
47481;SDS011;33219;47.410;9.730;2023-04-25T13:01:33;1.47;;;1.10;;
47481;SDS011;33219;47.410;9.730;2023-04-25T13:04:03;4.45;;;1.20;;
47481;SDS011;33219;47.410;9.730;2023-04-25T13:06:31;2.10;;;1.07;;
47481;SDS011;33219;47.410;9.730;2023-04-25T13:09:00;1.42;;;0.88;;
47481;SDS011;33219;47.410;9.730;2023-04-25T13:11:29;1.40;;;0.93;;
47481;SDS011;33219;47.410;9.730;2023-04-25T13:13:58;1.12;;;0.93;;
47481;SDS011;33219;47.410;9.730;2023-04-25T13:16:31;2.05;;;1.05;;
47481;SDS011;33219;47.410;9.730;2023-04-25T13:19:02;1.55;;;1.20;;
47481;SDS011;33219;47.410;9.730;2023-04-25T13:21:33;2.87;;;1.70;;
47481;SDS011;33219;47.410;9.730;2023-04-25T13:24:01;2.80;;;1.45;;
47481;SDS011;33219;47.410;9.730;2023-04-25T13:26:29;3.15;;;1.50;;
47481;SDS011;33219;47.410;9.730;2023-04-25T13:28:56;3.65;;;1.90;;
47481;SDS011;33219;47.410;9.730;2023-04-25T13:31:26;3.65;;;1.70;;
47481;SDS011;33219;47.410;9.730;2023-04-25T13:33:54;2.83;;;1.50;;
47481;SDS011;33219;47.410;9.730;2023-04-25T13:36:21;2.47;;;1.72;;
47481;SDS011;33219;47.410;9.730;2023-04-25T13:38:49;4.25;;;2.10;;
47481;SDS011;33219;47.410;9.730;2023-04-25T13:41:17;3.80;;;1.90;;
47481;SDS011;33219;47.410;9.730;2023-04-25T13:43:45;5.47;;;2.15;;
47481;SDS011;33219;47.410;9.730;2023-04-25T13:46:13;3.27;;;1.62;;
47481;SDS011;33219;47.410;9.730;2023-04-25T13:48:41;2.37;;;1.37;;
47481;SDS011;33219;47.410;9.730;2023-04-25T13:51:10;3.98;;;2.75;;
47481;SDS011;33219;47.410;9.730;2023-04-25T13:53:38;1.77;;;1.42;;
47481;SDS011;33219;47.410;9.730;2023-04-25T13:56:06;4.83;;;1.60;;
47481;SDS011;33219;47.410;9.730;2023-04-25T13:58:34;2.58;;;1.65;;
47481;SDS011;33219;47.410;9.730;2023-04-25T14:01:02;1.90;;;1.62;;
47481;SDS011;33219;47.410;9.730;2023-04-25T14:03:30;2.40;;;1.60;;
47481;SDS011;33219;47.410;9.730;2023-04-25T14:05:57;3.50;;;1.80;;
47481;SDS011;33219;47.410;9.730;2023-04-25T14:08:25;4.58;;;2.10;;
47481;SDS011;33219;47.410;9.730;2023-04-25T14:10:53;2.83;;;1.55;;
47481;SDS011;33219;47.410;9.730;2023-04-25T14:13:21;3.22;;;1.62;;
47481;SDS011;33219;47.410;9.730;2023-04-25T14:15:49;2.62;;;1.50;;
47481;SDS011;33219;47.410;9.730;2023-04-25T14:18:17;3.02;;;1.72;;
47481;SDS011;33219;47.410;9.730;2023-04-25T14:20:45;2.85;;;1.40;;
47481;SDS011;33219;47.410;9.730;2023-04-25T14:23:13;1.60;;;1.30;;
47481;SDS011;33219;47.410;9.730;2023-04-25T14:25:41;3.95;;;1.30;;
47481;SDS011;33219;47.410;9.730;2023-04-25T14:28:08;1.40;;;1.20;;
47481;SDS011;33219;47.410;9.730;2023-04-25T14:30:36;2.12;;;1.10;;
47481;SDS011;33219;47.410;9.730;2023-04-25T14:33:04;3.60;;;1.70;;
47481;SDS011;33219;47.410;9.730;2023-04-25T14:35:32;3.47;;;1.90;;
47481;SDS011;33219;47.410;9.730;2023-04-25T14:37:59;2.05;;;1.40;;
47481;SDS011;33219;47.410;9.730;2023-04-25T14:40:27;1.95;;;1.27;;
47481;SDS011;33219;47.410;9.730;2023-04-25T14:42:54;2.67;;;1.50;;
47481;SDS011;33219;47.410;9.730;2023-04-25T14:45:22;1.77;;;1.27;;
47481;SDS011;33219;47.410;9.730;2023-04-25T14:47:49;1.70;;;1.30;;
47481;SDS011;33219;47.410;9.730;2023-04-25T14:50:17;1.47;;;0.70;;
47481;SDS011;33219;47.410;9.730;2023-04-25T14:52:45;1.42;;;0.90;;
47481;SDS011;33219;47.410;9.730;2023-04-25T14:55:12;1.75;;;0.75;;
47481;SDS011;33219;47.410;9.730;2023-04-25T14:57:40;1.25;;;0.80;;
47481;SDS011;33219;47.410;9.730;2023-04-25T15:00:08;1.50;;;0.80;;
47481;SDS011;33219;47.410;9.730;2023-04-25T15:02:37;0.70;;;0.70;;
47481;SDS011;33219;47.410;9.730;2023-04-25T15:05:05;2.10;;;1.10;;
47481;SDS011;33219;47.410;9.730;2023-04-25T15:07:34;1.72;;;1.20;;
47481;SDS011;33219;47.410;9.730;2023-04-25T15:10:02;1.02;;;0.80;;
47481;SDS011;33219;47.410;9.730;2023-04-25T15:12:29;0.90;;;0.88;;
47481;SDS011;33219;47.410;9.730;2023-04-25T15:14:57;1.30;;;0.80;;
47481;SDS011;33219;47.410;9.730;2023-04-25T15:17:25;1.02;;;0.68;;
47481;SDS011;33219;47.410;9.730;2023-04-25T15:19:54;1.32;;;0.90;;
47481;SDS011;33219;47.410;9.730;2023-04-25T15:22:21;1.55;;;1.00;;
47481;SDS011;33219;47.410;9.730;2023-04-25T15:24:49;1.25;;;0.90;;